sensor_id;sensor_type;location;lat;lon;timestamp;P1;durP1;ratioP1;P2;durP2;ratioP2
52057;SDS011;38063;53.210;6.504;2024-03-23T00:53:13;22.25;;;4.63;;
52057;SDS011;38063;53.210;6.504;2024-03-23T00:55:43;24.77;;;5.10;;
52057;SDS011;38063;53.210;6.504;2024-03-23T00:58:09;21.00;;;5.03;;
52057;SDS011;38063;53.210;6.504;2024-03-23T01:00:34;21.52;;;4.35;;
52057;SDS011;38063;53.210;6.504;2024-03-23T01:03:00;20.25;;;4.80;;
52057;SDS011;38063;53.210;6.504;2024-03-23T01:05:26;25.85;;;4.85;;
52057;SDS011;38063;53.210;6.504;2024-03-23T01:07:52;22.27;;;4.30;;
52057;SDS011;38063;53.210;6.504;2024-03-23T01:10:17;30.60;;;4.70;;
52057;SDS011;38063;53.210;6.504;2024-03-23T01:12:43;26.13;;;4.95;;
52057;SDS011;38063;53.210;6.504;2024-03-23T01:15:09;16.15;;;4.82;;
52057;SDS011;38063;53.210;6.504;2024-03-23T01:17:34;20.33;;;4.88;;
52057;SDS011;38063;53.210;6.504;2024-03-23T01:20:00;23.55;;;4.82;;
52057;SDS011;38063;53.210;6.504;2024-03-23T01:22:26;31.52;;;5.30;;
52057;SDS011;38063;53.210;6.504;2024-03-23T01:24:51;22.15;;;4.85;;
52057;SDS011;38063;53.210;6.504;2024-03-23T01:27:17;23.48;;;4.55;;
52057;SDS011;38063;53.210;6.504;2024-03-23T01:29:43;23.90;;;4.80;;
52057;SDS011;38063;53.210;6.504;2024-03-23T01:32:09;26.98;;;5.38;;
52057;SDS011;38063;53.210;6.504;2024-03-23T01:34:34;21.73;;;4.63;;
52057;SDS011;38063;53.210;6.504;2024-03-23T01:37:00;19.50;;;4.85;;
52057;SDS011;38063;53.210;6.504;2024-03-23T01:39:26;23.90;;;4.85;;
52057;SDS011;38063;53.210;6.504;2024-03-23T01:41:52;27.17;;;5.40;;
52057;SDS011;38063;53.210;6.504;2024-03-23T01:44:17;23.52;;;5.38;;
52057;SDS011;38063;53.210;6.504;2024-03-23T01:46:43;29.52;;;5.63;;
52057;SDS011;38063;53.210;6.504;2024-03-23T01:49:09;20.00;;;5.50;;
52057;SDS011;38063;53.210;6.504;2024-03-23T01:51:36;23.23;;;5.70;;
52057;SDS011;38063;53.210;6.504;2024-03-23T01:54:02;25.88;;;5.57;;
52057;SDS011;38063;53.210;6.504;2024-03-23T01:56:29;25.15;;;4.70;;
52057;SDS011;38063;53.210;6.504;2024-03-23T01:58:58;24.55;;;4.93;;
52057;SDS011;38063;53.210;6.504;2024-03-23T02:01:23;24.33;;;5.38;;
52057;SDS011;38063;53.210;6.504;2024-03-23T02:03:49;17.88;;;4.70;;
52057;SDS011;38063;53.210;6.504;2024-03-23T02:06:14;30.15;;;5.43;;
52057;SDS011;38063;53.210;6.504;2024-03-23T02:08:40;22.35;;;4.57;;
52057;SDS011;38063;53.210;6.504;2024-03-23T02:11:06;19.23;;;4.30;;
52057;SDS011;38063;53.210;6.504;2024-03-23T02:13:32;27.52;;;4.95;;
52057;SDS011;38063;53.210;6.504;2024-03-23T02:15:58;25.20;;;5.45;;
52057;SDS011;38063;53.210;6.504;2024-03-23T02:18:23;31.13;;;6.55;;
52057;SDS011;38063;53.210;6.504;2024-03-23T02:20:49;21.70;;;5.65;;
52057;SDS011;38063;53.210;6.504;2024-03-23T02:23:15;21.65;;;4.85;;
52057;SDS011;38063;53.210;6.504;2024-03-23T02:25:42;24.75;;;4.55;;
52057;SDS011;38063;53.210;6.504;2024-03-23T02:28:09;22.48;;;4.90;;
52057;SDS011;38063;53.210;6.504;2024-03-23T02:30:35;17.58;;;4.50;;
52057;SDS011;38063;53.210;6.504;2024-03-23T02:33:00;15.30;;;4.68;;
52057;SDS011;38063;53.210;6.504;2024-03-23T02:35:26;31.67;;;5.60;;
52057;SDS011;38063;53.210;6.504;2024-03-23T02:37:52;24.77;;;4.82;;
52057;SDS011;38063;53.210;6.504;2024-03-23T02:40:19;28.52;;;5.43;;
52057;SDS011;38063;53.210;6.504;2024-03-23T02:42:45;23.83;;;4.68;;
52057;SDS011;38063;53.210;6.504;2024-03-23T02:45:11;20.48;;;4.85;;
52057;SDS011;38063;53.210;6.504;2024-03-23T02:47:37;21.35;;;5.65;;
52057;SDS011;38063;53.210;6.504;2024-03-23T02:50:02;45.97;;;5.45;;
52057;SDS011;38063;53.210;6.504;2024-03-23T02:52:29;21.50;;;5.25;;
52057;SDS011;38063;53.210;6.504;2024-03-23T02:54:55;25.05;;;4.20;;
52057;SDS011;38063;53.210;6.504;2024-03-23T02:57:21;17.42;;;5.47;;
52057;SDS011;38063;53.210;6.504;2024-03-23T02:59:47;18.58;;;4.35;;
52057;SDS011;38063;53.210;6.504;2024-03-23T03:02:13;19.33;;;4.10;;
52057;SDS011;38063;53.210;6.504;2024-03-23T03:04:40;18.50;;;4.35;;
52057;SDS011;38063;53.210;6.504;2024-03-23T03:07:05;24.23;;;4.45;;
52057;SDS011;38063;53.210;6.504;2024-03-23T03:09:31;22.17;;;4.22;;
52057;SDS011;38063;53.210;6.504;2024-03-23T03:11:58;19.85;;;4.80;;
52057;SDS011;38063;53.210;6.504;2024-03-23T03:14:23;23.75;;;4.93;;
52057;SDS011;38063;53.210;6.504;2024-03-23T03:16:49;24.50;;;4.57;;
52057;SDS011;38063;53.210;6.504;2024-03-23T03:19:15;25.40;;;3.85;;
52057;SDS011;38063;53.210;6.504;2024-03-23T03:21:41;18.23;;;4.00;;
52057;SDS011;38063;53.210;6.504;2024-03-23T03:24:07;38.97;;;6.55;;
52057;SDS011;38063;53.210;6.504;2024-03-23T03:26:33;26.17;;;3.85;;
52057;SDS011;38063;53.210;6.504;2024-03-23T03:29:00;19.33;;;3.65;;
52057;SDS011;38063;53.210;6.504;2024-03-23T03:31:25;20.90;;;3.70;;
52057;SDS011;38063;53.210;6.504;2024-03-23T03:33:51;18.58;;;4.10;;
52057;SDS011;38063;53.210;6.504;2024-03-23T03:36:17;23.02;;;3.72;;
52057;SDS011;38063;53.210;6.504;2024-03-23T03:38:42;23.70;;;3.75;;
52057;SDS011;38063;53.210;6.504;2024-03-23T03:41:08;19.23;;;3.97;;
52057;SDS011;38063;53.210;6.504;2024-03-23T03:43:34;18.13;;;3.75;;
52057;SDS011;38063;53.210;6.504;2024-03-23T03:46:00;19.88;;;3.75;;
52057;SDS011;38063;53.210;6.504;2024-03-23T03:48:26;17.17;;;3.17;;
52057;SDS011;38063;53.210;6.504;2024-03-23T03:50:52;20.02;;;3.58;;
52057;SDS011;38063;53.210;6.504;2024-03-23T03:53:18;19.48;;;4.20;;
52057;SDS011;38063;53.210;6.504;2024-03-23T03:55:44;21.38;;;3.60;;
52057;SDS011;38063;53.210;6.504;2024-03-23T03:58:10;14.63;;;4.03;;
52057;SDS011;38063;53.210;6.504;2024-03-23T04:00:36;14.70;;;3.40;;
52057;SDS011;38063;53.210;6.504;2024-03-23T04:03:02;24.98;;;3.75;;
52057;SDS011;38063;53.210;6.504;2024-03-23T04:05:27;15.98;;;3.50;;
52057;SDS011;38063;53.210;6.504;2024-03-23T04:07:53;20.08;;;2.95;;
52057;SDS011;38063;53.210;6.504;2024-03-23T04:10:19;20.48;;;3.40;;
52057;SDS011;38063;53.210;6.504;2024-03-23T04:12:45;15.00;;;2.88;;
52057;SDS011;38063;53.210;6.504;2024-03-23T04:15:11;21.63;;;4.20;;
52057;SDS011;38063;53.210;6.504;2024-03-23T04:17:37;12.82;;;4.00;;
52057;SDS011;38063;53.210;6.504;2024-03-23T04:20:03;14.93;;;3.40;;
52057;SDS011;38063;53.210;6.504;2024-03-23T04:22:33;10.38;;;3.17;;
52057;SDS011;38063;53.210;6.504;2024-03-23T04:24:59;22.17;;;3.65;;
52057;SDS011;38063;53.210;6.504;2024-03-23T04:27:28;18.85;;;3.55;;
52057;SDS011;38063;53.210;6.504;2024-03-23T04:29:54;20.83;;;3.05;;
52057;SDS011;38063;53.210;6.504;2024-03-23T04:32:19;22.55;;;3.60;;
52057;SDS011;38063;53.210;6.504;2024-03-23T04:34:45;22.88;;;4.20;;
52057;SDS011;38063;53.210;6.504;2024-03-23T04:37:11;12.93;;;2.72;;
52057;SDS011;38063;53.210;6.504;2024-03-23T04:39:37;12.77;;;2.58;;
52057;SDS011;38063;53.210;6.504;2024-03-23T04:42:03;21.95;;;3.85;;
52057;SDS011;38063;53.210;6.504;2024-03-23T04:44:29;13.90;;;2.83;;
52057;SDS011;38063;53.210;6.504;2024-03-23T04:46:55;14.50;;;3.30;;
52057;SDS011;38063;53.210;6.504;2024-03-23T04:49:25;18.42;;;4.38;;
52057;SDS011;38063;53.210;6.504;2024-03-23T04:51:51;16.65;;;3.00;;
52057;SDS011;38063;53.210;6.504;2024-03-23T04:54:17;15.75;;;3.47;;
52057;SDS011;38063;53.210;6.504;2024-03-23T04:56:42;17.38;;;4.00;;
52057;SDS011;38063;53.210;6.504;2024-03-23T04:59:08;24.42;;;3.70;;
52057;SDS011;38063;53.210;6.504;2024-03-23T05:01:34;15.18;;;2.75;;
52057;SDS011;38063;53.210;6.504;2024-03-23T05:04:00;14.77;;;3.45;;
52057;SDS011;38063;53.210;6.504;2024-03-23T05:06:26;21.30;;;3.72;;
52057;SDS011;38063;53.210;6.504;2024-03-23T05:08:52;22.05;;;3.90;;
52057;SDS011;38063;53.210;6.504;2024-03-23T05:11:17;13.85;;;3.15;;
52057;SDS011;38063;53.210;6.504;2024-03-23T05:13:43;17.67;;;3.42;;
52057;SDS011;38063;53.210;6.504;2024-03-23T05:16:10;18.70;;;3.33;;
52057;SDS011;38063;53.210;6.504;2024-03-23T05:18:36;14.95;;;3.17;;
52057;SDS011;38063;53.210;6.504;2024-03-23T05:21:02;17.75;;;3.85;;
52057;SDS011;38063;53.210;6.504;2024-03-23T05:23:28;14.30;;;4.00;;
52057;SDS011;38063;53.210;6.504;2024-03-23T05:25:54;16.70;;;2.83;;
52057;SDS011;38063;53.210;6.504;2024-03-23T05:28:20;18.58;;;3.25;;
52057;SDS011;38063;53.210;6.504;2024-03-23T05:30:53;20.50;;;3.30;;
52057;SDS011;38063;53.210;6.504;2024-03-23T05:33:19;19.70;;;3.13;;
52057;SDS011;38063;53.210;6.504;2024-03-23T05:35:46;15.68;;;4.85;;
52057;SDS011;38063;53.210;6.504;2024-03-23T05:38:13;13.73;;;3.20;;
52057;SDS011;38063;53.210;6.504;2024-03-23T05:40:39;21.95;;;3.20;;
52057;SDS011;38063;53.210;6.504;2024-03-23T05:43:08;19.50;;;3.35;;
52057;SDS011;38063;53.210;6.504;2024-03-23T05:45:34;20.25;;;3.08;;
52057;SDS011;38063;53.210;6.504;2024-03-23T05:48:00;16.13;;;3.08;;
52057;SDS011;38063;53.210;6.504;2024-03-23T05:50:25;16.67;;;2.83;;
52057;SDS011;38063;53.210;6.504;2024-03-23T05:52:51;16.60;;;3.08;;
52057;SDS011;38063;53.210;6.504;2024-03-23T05:55:17;13.45;;;3.63;;
52057;SDS011;38063;53.210;6.504;2024-03-23T05:57:43;17.90;;;2.78;;
52057;SDS011;38063;53.210;6.504;2024-03-23T06:00:08;14.85;;;3.67;;
52057;SDS011;38063;53.210;6.504;2024-03-23T06:02:41;18.52;;;2.90;;
52057;SDS011;38063;53.210;6.504;2024-03-23T06:05:10;18.75;;;2.72;;
52057;SDS011;38063;53.210;6.504;2024-03-23T06:07:37;18.65;;;3.15;;
52057;SDS011;38063;53.210;6.504;2024-03-23T06:10:03;18.70;;;3.55;;
52057;SDS011;38063;53.210;6.504;2024-03-23T06:12:30;22.42;;;3.58;;
52057;SDS011;38063;53.210;6.504;2024-03-23T06:14:57;16.33;;;3.13;;
52057;SDS011;38063;53.210;6.504;2024-03-23T06:17:22;16.58;;;2.67;;
52057;SDS011;38063;53.210;6.504;2024-03-23T06:19:48;9.45;;;2.15;;
52057;SDS011;38063;53.210;6.504;2024-03-23T06:22:14;9.15;;;1.98;;
52057;SDS011;38063;53.210;6.504;2024-03-23T06:24:40;16.67;;;2.38;;
52057;SDS011;38063;53.210;6.504;2024-03-23T06:27:06;16.25;;;2.22;;
52057;SDS011;38063;53.210;6.504;2024-03-23T06:29:31;10.40;;;1.98;;
52057;SDS011;38063;53.210;6.504;2024-03-23T06:31:57;12.38;;;2.00;;
52057;SDS011;38063;53.210;6.504;2024-03-23T06:34:23;15.73;;;2.45;;
52057;SDS011;38063;53.210;6.504;2024-03-23T06:36:49;14.35;;;2.42;;
52057;SDS011;38063;53.210;6.504;2024-03-23T06:39:15;12.27;;;2.33;;
52057;SDS011;38063;53.210;6.504;2024-03-23T06:41:46;11.32;;;1.92;;
52057;SDS011;38063;53.210;6.504;2024-03-23T06:44:17;14.27;;;2.92;;
52057;SDS011;38063;53.210;6.504;2024-03-23T06:46:44;11.73;;;2.22;;
52057;SDS011;38063;53.210;6.504;2024-03-23T06:49:10;9.48;;;1.88;;
52057;SDS011;38063;53.210;6.504;2024-03-23T06:51:36;11.57;;;2.30;;
52057;SDS011;38063;53.210;6.504;2024-03-23T06:54:03;14.45;;;2.05;;
52057;SDS011;38063;53.210;6.504;2024-03-23T06:56:29;8.48;;;2.20;;
52057;SDS011;38063;53.210;6.504;2024-03-23T06:58:56;10.63;;;2.70;;
52057;SDS011;38063;53.210;6.504;2024-03-23T07:01:22;8.38;;;2.05;;
52057;SDS011;38063;53.210;6.504;2024-03-23T07:03:47;13.65;;;2.38;;
52057;SDS011;38063;53.210;6.504;2024-03-23T07:06:13;12.75;;;2.70;;
52057;SDS011;38063;53.210;6.504;2024-03-23T07:08:39;13.13;;;2.55;;
52057;SDS011;38063;53.210;6.504;2024-03-23T07:11:05;16.08;;;3.45;;
52057;SDS011;38063;53.210;6.504;2024-03-23T07:13:30;10.00;;;1.70;;
52057;SDS011;38063;53.210;6.504;2024-03-23T07:15:56;14.45;;;3.00;;
52057;SDS011;38063;53.210;6.504;2024-03-23T07:18:23;7.15;;;2.70;;
52057;SDS011;38063;53.210;6.504;2024-03-23T07:20:52;8.35;;;2.08;;
52057;SDS011;38063;53.210;6.504;2024-03-23T07:23:22;10.65;;;2.50;;
52057;SDS011;38063;53.210;6.504;2024-03-23T07:26:00;7.47;;;1.95;;
52057;SDS011;38063;53.210;6.504;2024-03-23T07:28:27;12.55;;;1.95;;
52057;SDS011;38063;53.210;6.504;2024-03-23T07:33:34;8.20;;;1.70;;
52057;SDS011;38063;53.210;6.504;2024-03-23T07:36:01;10.73;;;2.10;;
52057;SDS011;38063;53.210;6.504;2024-03-23T07:38:28;8.70;;;1.60;;
52057;SDS011;38063;53.210;6.504;2024-03-23T07:41:10;6.07;;;2.00;;
52057;SDS011;38063;53.210;6.504;2024-03-23T07:43:37;9.35;;;1.77;;
52057;SDS011;38063;53.210;6.504;2024-03-23T07:46:04;9.90;;;1.92;;
52057;SDS011;38063;53.210;6.504;2024-03-23T07:48:30;9.82;;;2.15;;
52057;SDS011;38063;53.210;6.504;2024-03-23T07:53:24;3.35;;;1.42;;
52057;SDS011;38063;53.210;6.504;2024-03-23T07:58:23;3.78;;;1.30;;
52057;SDS011;38063;53.210;6.504;2024-03-23T08:00:48;6.22;;;1.73;;
52057;SDS011;38063;53.210;6.504;2024-03-23T08:03:14;6.32;;;1.50;;
52057;SDS011;38063;53.210;6.504;2024-03-23T08:05:40;6.88;;;2.08;;
52057;SDS011;38063;53.210;6.504;2024-03-23T08:08:06;6.93;;;1.70;;
52057;SDS011;38063;53.210;6.504;2024-03-23T08:10:31;8.48;;;1.63;;
52057;SDS011;38063;53.210;6.504;2024-03-23T08:12:57;5.03;;;1.25;;
52057;SDS011;38063;53.210;6.504;2024-03-23T08:15:22;7.50;;;1.50;;
52057;SDS011;38063;53.210;6.504;2024-03-23T08:17:49;5.05;;;1.38;;
52057;SDS011;38063;53.210;6.504;2024-03-23T08:20:15;4.40;;;1.30;;
52057;SDS011;38063;53.210;6.504;2024-03-23T08:22:40;5.82;;;1.40;;
52057;SDS011;38063;53.210;6.504;2024-03-23T08:25:06;8.32;;;1.45;;
52057;SDS011;38063;53.210;6.504;2024-03-23T08:27:32;4.00;;;1.67;;
52057;SDS011;38063;53.210;6.504;2024-03-23T08:29:58;8.95;;;1.88;;
52057;SDS011;38063;53.210;6.504;2024-03-23T08:32:23;7.80;;;2.20;;
52057;SDS011;38063;53.210;6.504;2024-03-23T08:34:49;10.65;;;2.22;;
52057;SDS011;38063;53.210;6.504;2024-03-23T08:37:15;5.85;;;2.08;;
52057;SDS011;38063;53.210;6.504;2024-03-23T08:39:42;13.23;;;3.05;;
52057;SDS011;38063;53.210;6.504;2024-03-23T08:42:08;9.30;;;2.15;;
52057;SDS011;38063;53.210;6.504;2024-03-23T08:44:34;21.42;;;3.22;;
52057;SDS011;38063;53.210;6.504;2024-03-23T08:47:01;9.10;;;2.45;;
52057;SDS011;38063;53.210;6.504;2024-03-23T09:12:10;15.23;;;2.80;;
52057;SDS011;38063;53.210;6.504;2024-03-23T09:14:36;9.63;;;2.10;;
52057;SDS011;38063;53.210;6.504;2024-03-23T09:17:02;13.75;;;2.22;;
52057;SDS011;38063;53.210;6.504;2024-03-23T09:19:28;6.78;;;2.00;;
52057;SDS011;38063;53.210;6.504;2024-03-23T09:21:54;11.27;;;2.50;;
52057;SDS011;38063;53.210;6.504;2024-03-23T09:24:20;7.97;;;1.63;;
52057;SDS011;38063;53.210;6.504;2024-03-23T09:26:46;12.38;;;1.83;;
52057;SDS011;38063;53.210;6.504;2024-03-23T09:29:12;11.68;;;2.60;;
52057;SDS011;38063;53.210;6.504;2024-03-23T09:31:37;10.65;;;2.00;;
52057;SDS011;38063;53.210;6.504;2024-03-23T09:34:03;9.93;;;2.03;;
52057;SDS011;38063;53.210;6.504;2024-03-23T09:36:29;10.35;;;2.50;;
52057;SDS011;38063;53.210;6.504;2024-03-23T09:38:55;6.43;;;1.35;;
52057;SDS011;38063;53.210;6.504;2024-03-23T09:41:20;7.75;;;1.35;;
52057;SDS011;38063;53.210;6.504;2024-03-23T09:43:46;3.80;;;1.48;;
52057;SDS011;38063;53.210;6.504;2024-03-23T09:46:13;6.20;;;1.33;;
52057;SDS011;38063;53.210;6.504;2024-03-23T09:48:39;6.88;;;1.27;;
52057;SDS011;38063;53.210;6.504;2024-03-23T09:51:07;10.52;;;2.85;;
52057;SDS011;38063;53.210;6.504;2024-03-23T09:53:34;3.78;;;1.52;;
52057;SDS011;38063;53.210;6.504;2024-03-23T09:55:59;7.28;;;1.40;;
52057;SDS011;38063;53.210;6.504;2024-03-23T09:58:25;7.10;;;1.38;;
52057;SDS011;38063;53.210;6.504;2024-03-23T10:00:51;3.08;;;0.93;;
52057;SDS011;38063;53.210;6.504;2024-03-23T10:03:17;6.90;;;1.33;;
52057;SDS011;38063;53.210;6.504;2024-03-23T10:05:42;3.88;;;0.80;;
52057;SDS011;38063;53.210;6.504;2024-03-23T10:10:40;9.15;;;1.75;;
52057;SDS011;38063;53.210;6.504;2024-03-23T10:13:10;7.35;;;1.42;;
52057;SDS011;38063;53.210;6.504;2024-03-23T10:15:39;10.18;;;1.95;;
52057;SDS011;38063;53.210;6.504;2024-03-23T10:18:25;18.83;;;1.88;;
52057;SDS011;38063;53.210;6.504;2024-03-23T10:23:18;15.43;;;2.15;;
52057;SDS011;38063;53.210;6.504;2024-03-23T10:25:44;7.40;;;1.58;;
52057;SDS011;38063;53.210;6.504;2024-03-23T10:28:11;7.22;;;1.80;;
52057;SDS011;38063;53.210;6.504;2024-03-23T10:30:36;14.23;;;2.60;;
52057;SDS011;38063;53.210;6.504;2024-03-23T10:33:11;13.45;;;2.30;;
52057;SDS011;38063;53.210;6.504;2024-03-23T10:35:38;15.00;;;2.47;;
52057;SDS011;38063;53.210;6.504;2024-03-23T10:38:04;13.63;;;2.63;;
52057;SDS011;38063;53.210;6.504;2024-03-23T10:40:34;8.93;;;2.20;;
52057;SDS011;38063;53.210;6.504;2024-03-23T10:43:00;8.98;;;1.70;;
52057;SDS011;38063;53.210;6.504;2024-03-23T10:45:27;5.03;;;1.40;;
52057;SDS011;38063;53.210;6.504;2024-03-23T10:47:53;8.05;;;1.35;;
52057;SDS011;38063;53.210;6.504;2024-03-23T10:50:19;8.35;;;1.70;;
52057;SDS011;38063;53.210;6.504;2024-03-23T10:52:46;5.57;;;1.30;;
52057;SDS011;38063;53.210;6.504;2024-03-23T10:55:18;6.28;;;1.40;;
52057;SDS011;38063;53.210;6.504;2024-03-23T10:57:55;10.10;;;1.63;;
52057;SDS011;38063;53.210;6.504;2024-03-23T11:00:24;5.78;;;1.25;;
52057;SDS011;38063;53.210;6.504;2024-03-23T11:02:51;11.25;;;1.60;;
52057;SDS011;38063;53.210;6.504;2024-03-23T11:05:35;6.50;;;1.20;;
52057;SDS011;38063;53.210;6.504;2024-03-23T11:08:01;7.75;;;1.55;;
52057;SDS011;38063;53.210;6.504;2024-03-23T11:10:28;8.05;;;1.55;;
52057;SDS011;38063;53.210;6.504;2024-03-23T11:12:59;5.07;;;1.60;;
52057;SDS011;38063;53.210;6.504;2024-03-23T11:15:47;9.35;;;2.15;;
52057;SDS011;38063;53.210;6.504;2024-03-23T11:18:13;7.80;;;1.35;;
52057;SDS011;38063;53.210;6.504;2024-03-23T11:20:45;9.32;;;1.77;;
52057;SDS011;38063;53.210;6.504;2024-03-23T11:23:26;5.65;;;1.63;;
52057;SDS011;38063;53.210;6.504;2024-03-23T11:25:52;10.23;;;2.65;;
52057;SDS011;38063;53.210;6.504;2024-03-23T11:28:18;10.68;;;2.38;;
52057;SDS011;38063;53.210;6.504;2024-03-23T11:30:44;8.80;;;2.00;;
52057;SDS011;38063;53.210;6.504;2024-03-23T11:33:09;15.35;;;2.15;;
52057;SDS011;38063;53.210;6.504;2024-03-23T11:35:38;10.23;;;2.28;;
52057;SDS011;38063;53.210;6.504;2024-03-23T11:38:06;9.43;;;1.90;;
52057;SDS011;38063;53.210;6.504;2024-03-23T11:40:41;13.40;;;2.42;;
52057;SDS011;38063;53.210;6.504;2024-03-23T11:43:09;5.63;;;2.03;;
52057;SDS011;38063;53.210;6.504;2024-03-23T11:48:11;9.02;;;1.80;;
52057;SDS011;38063;53.210;6.504;2024-03-23T11:50:42;12.70;;;1.80;;
52057;SDS011;38063;53.210;6.504;2024-03-23T11:58:10;13.05;;;2.67;;
52057;SDS011;38063;53.210;6.504;2024-03-23T12:00:37;8.40;;;1.88;;
52057;SDS011;38063;53.210;6.504;2024-03-23T12:03:03;7.80;;;1.67;;
52057;SDS011;38063;53.210;6.504;2024-03-23T12:05:29;6.88;;;1.98;;
52057;SDS011;38063;53.210;6.504;2024-03-23T12:08:14;8.32;;;2.55;;
52057;SDS011;38063;53.210;6.504;2024-03-23T12:11:04;11.88;;;2.85;;
52057;SDS011;38063;53.210;6.504;2024-03-23T12:13:30;8.68;;;1.77;;
52057;SDS011;38063;53.210;6.504;2024-03-23T12:15:58;4.18;;;1.40;;
52057;SDS011;38063;53.210;6.504;2024-03-23T12:18:39;10.98;;;2.42;;
52057;SDS011;38063;53.210;6.504;2024-03-23T12:21:06;7.03;;;1.40;;
52057;SDS011;38063;53.210;6.504;2024-03-23T12:23:33;5.95;;;1.45;;
52057;SDS011;38063;53.210;6.504;2024-03-23T12:25:59;6.38;;;1.20;;
52057;SDS011;38063;53.210;6.504;2024-03-23T12:28:24;9.43;;;1.35;;
52057;SDS011;38063;53.210;6.504;2024-03-23T12:30:50;4.90;;;1.02;;
52057;SDS011;38063;53.210;6.504;2024-03-23T12:33:18;7.07;;;1.67;;
52057;SDS011;38063;53.210;6.504;2024-03-23T12:35:43;7.75;;;1.88;;
52057;SDS011;38063;53.210;6.504;2024-03-23T12:38:09;6.72;;;1.38;;
52057;SDS011;38063;53.210;6.504;2024-03-23T12:40:35;6.30;;;1.38;;
52057;SDS011;38063;53.210;6.504;2024-03-23T12:43:00;9.60;;;1.85;;
52057;SDS011;38063;53.210;6.504;2024-03-23T12:45:26;6.65;;;2.13;;
52057;SDS011;38063;53.210;6.504;2024-03-23T12:47:52;7.57;;;1.33;;
52057;SDS011;38063;53.210;6.504;2024-03-23T12:50:18;6.78;;;1.70;;
52057;SDS011;38063;53.210;6.504;2024-03-23T12:52:45;3.88;;;1.20;;
52057;SDS011;38063;53.210;6.504;2024-03-23T12:55:11;9.10;;;1.55;;
52057;SDS011;38063;53.210;6.504;2024-03-23T12:57:36;7.47;;;1.50;;
52057;SDS011;38063;53.210;6.504;2024-03-23T13:00:02;6.90;;;1.23;;
52057;SDS011;38063;53.210;6.504;2024-03-23T13:02:29;9.20;;;1.80;;
52057;SDS011;38063;53.210;6.504;2024-03-23T13:04:55;6.13;;;1.35;;
52057;SDS011;38063;53.210;6.504;2024-03-23T13:07:21;7.43;;;1.67;;
52057;SDS011;38063;53.210;6.504;2024-03-23T13:09:51;8.70;;;1.67;;
52057;SDS011;38063;53.210;6.504;2024-03-23T13:12:17;9.52;;;1.77;;
52057;SDS011;38063;53.210;6.504;2024-03-23T13:14:44;8.10;;;1.85;;
52057;SDS011;38063;53.210;6.504;2024-03-23T13:17:10;9.77;;;2.00;;
52057;SDS011;38063;53.210;6.504;2024-03-23T13:19:36;9.80;;;1.73;;
52057;SDS011;38063;53.210;6.504;2024-03-23T13:22:02;13.25;;;2.42;;
52057;SDS011;38063;53.210;6.504;2024-03-23T13:24:29;12.98;;;2.85;;
52057;SDS011;38063;53.210;6.504;2024-03-23T13:26:55;9.98;;;2.00;;
52057;SDS011;38063;53.210;6.504;2024-03-23T13:29:21;7.80;;;1.90;;
52057;SDS011;38063;53.210;6.504;2024-03-23T13:31:48;8.95;;;2.20;;
52057;SDS011;38063;53.210;6.504;2024-03-23T13:34:14;9.93;;;1.80;;
52057;SDS011;38063;53.210;6.504;2024-03-23T13:36:47;8.68;;;2.05;;
52057;SDS011;38063;53.210;6.504;2024-03-23T13:39:13;6.25;;;1.70;;
52057;SDS011;38063;53.210;6.504;2024-03-23T13:41:41;6.28;;;2.17;;
52057;SDS011;38063;53.210;6.504;2024-03-23T13:44:09;9.50;;;2.33;;
52057;SDS011;38063;53.210;6.504;2024-03-23T13:46:40;8.27;;;2.25;;
52057;SDS011;38063;53.210;6.504;2024-03-23T13:49:31;6.55;;;1.48;;
52057;SDS011;38063;53.210;6.504;2024-03-23T13:51:59;6.75;;;1.40;;
52057;SDS011;38063;53.210;6.504;2024-03-23T13:54:25;4.20;;;1.20;;
52057;SDS011;38063;53.210;6.504;2024-03-23T13:56:52;9.88;;;2.17;;
52057;SDS011;38063;53.210;6.504;2024-03-23T13:59:19;5.00;;;1.60;;
52057;SDS011;38063;53.210;6.504;2024-03-23T14:01:46;6.30;;;1.48;;
52057;SDS011;38063;53.210;6.504;2024-03-23T14:04:12;5.63;;;1.33;;
52057;SDS011;38063;53.210;6.504;2024-03-23T14:06:38;9.32;;;1.67;;
52057;SDS011;38063;53.210;6.504;2024-03-23T14:09:04;11.93;;;1.90;;
52057;SDS011;38063;53.210;6.504;2024-03-23T14:11:33;7.55;;;1.30;;
52057;SDS011;38063;53.210;6.504;2024-03-23T14:14:00;10.70;;;1.90;;
52057;SDS011;38063;53.210;6.504;2024-03-23T14:16:25;6.63;;;1.23;;
52057;SDS011;38063;53.210;6.504;2024-03-23T14:18:51;7.55;;;1.70;;
52057;SDS011;38063;53.210;6.504;2024-03-23T14:21:17;8.35;;;1.58;;
52057;SDS011;38063;53.210;6.504;2024-03-23T14:23:42;9.05;;;1.60;;
52057;SDS011;38063;53.210;6.504;2024-03-23T14:26:08;6.88;;;1.55;;
52057;SDS011;38063;53.210;6.504;2024-03-23T14:28:34;7.20;;;1.55;;
52057;SDS011;38063;53.210;6.504;2024-03-23T14:31:00;10.55;;;2.45;;
52057;SDS011;38063;53.210;6.504;2024-03-23T14:33:26;8.88;;;1.88;;
52057;SDS011;38063;53.210;6.504;2024-03-23T14:35:52;7.97;;;1.73;;
52057;SDS011;38063;53.210;6.504;2024-03-23T14:38:21;9.50;;;2.40;;
52057;SDS011;38063;53.210;6.504;2024-03-23T14:40:46;17.05;;;2.95;;
52057;SDS011;38063;53.210;6.504;2024-03-23T14:43:12;11.10;;;2.03;;
52057;SDS011;38063;53.210;6.504;2024-03-23T14:48:35;12.02;;;2.33;;
52057;SDS011;38063;53.210;6.504;2024-03-23T14:51:01;9.27;;;2.10;;
52057;SDS011;38063;53.210;6.504;2024-03-23T14:53:33;7.05;;;1.80;;
52057;SDS011;38063;53.210;6.504;2024-03-23T14:56:00;8.05;;;1.67;;
52057;SDS011;38063;53.210;6.504;2024-03-23T14:58:27;11.85;;;1.77;;
52057;SDS011;38063;53.210;6.504;2024-03-23T15:00:59;8.63;;;2.20;;
52057;SDS011;38063;53.210;6.504;2024-03-23T15:03:26;8.43;;;1.30;;
52057;SDS011;38063;53.210;6.504;2024-03-23T15:05:52;7.97;;;1.40;;
52057;SDS011;38063;53.210;6.504;2024-03-23T15:08:19;5.32;;;1.27;;
52057;SDS011;38063;53.210;6.504;2024-03-23T15:10:44;10.98;;;1.30;;
52057;SDS011;38063;53.210;6.504;2024-03-23T15:13:10;4.93;;;1.02;;
52057;SDS011;38063;53.210;6.504;2024-03-23T15:15:39;6.72;;;1.10;;
52057;SDS011;38063;53.210;6.504;2024-03-23T15:18:07;10.95;;;2.10;;
52057;SDS011;38063;53.210;6.504;2024-03-23T15:20:33;7.22;;;1.40;;
52057;SDS011;38063;53.210;6.504;2024-03-23T15:23:00;12.57;;;1.80;;
52057;SDS011;38063;53.210;6.504;2024-03-23T15:25:29;6.60;;;1.70;;
52057;SDS011;38063;53.210;6.504;2024-03-23T15:27:55;8.45;;;1.60;;
52057;SDS011;38063;53.210;6.504;2024-03-23T15:30:22;10.77;;;2.05;;
52057;SDS011;38063;53.210;6.504;2024-03-23T15:32:48;13.88;;;2.25;;
52057;SDS011;38063;53.210;6.504;2024-03-23T15:35:14;11.25;;;1.80;;
52057;SDS011;38063;53.210;6.504;2024-03-23T15:37:39;9.13;;;2.33;;
52057;SDS011;38063;53.210;6.504;2024-03-23T15:40:06;14.85;;;2.58;;
52057;SDS011;38063;53.210;6.504;2024-03-23T15:42:32;10.13;;;2.03;;
52057;SDS011;38063;53.210;6.504;2024-03-23T15:44:58;8.40;;;1.73;;
52057;SDS011;38063;53.210;6.504;2024-03-23T15:47:24;7.97;;;1.95;;
52057;SDS011;38063;53.210;6.504;2024-03-23T15:49:50;12.50;;;2.05;;
52057;SDS011;38063;53.210;6.504;2024-03-23T15:52:18;14.98;;;1.90;;
52057;SDS011;38063;53.210;6.504;2024-03-23T15:54:44;13.65;;;1.90;;
52057;SDS011;38063;53.210;6.504;2024-03-23T15:57:09;12.70;;;2.30;;
52057;SDS011;38063;53.210;6.504;2024-03-23T15:59:35;7.82;;;2.22;;
52057;SDS011;38063;53.210;6.504;2024-03-23T16:02:01;8.02;;;2.30;;
52057;SDS011;38063;53.210;6.504;2024-03-23T16:04:27;7.95;;;1.67;;
52057;SDS011;38063;53.210;6.504;2024-03-23T16:06:53;6.35;;;1.52;;
52057;SDS011;38063;53.210;6.504;2024-03-23T16:09:19;9.35;;;1.95;;
52057;SDS011;38063;53.210;6.504;2024-03-23T16:11:44;10.05;;;1.55;;
52057;SDS011;38063;53.210;6.504;2024-03-23T16:14:10;15.23;;;2.03;;
52057;SDS011;38063;53.210;6.504;2024-03-23T16:16:36;7.93;;;1.80;;